Time;durP1;ratioP1;P1;durP2;ratioP2;P2;SDS_P1;SDS_P2;PMS_P1;PMS_P2;Temp;Humidity;BMP_temperature;BMP_pressure;BME280_temperature;BME280_humidity;BME280_pressure;Samples;Min_cycle;Max_cycle;Signal;HPM_P1;HPM_P2
2021/10/28 00:13:44;;;;;;;;;;;205.20;2252.80;;;;;;5134045;27;19927;-76
2021/10/28 00:16:21;;;;;;;;;;;205.10;2252.80;;;;;;5116308;27;19911;-78
2021/10/28 00:18:49;;;;;;;;;;;205.20;2252.80;;;;;;5131940;27;19924;-78
2021/10/28 00:21:15;;;;;;;;;;;205.20;2252.80;;;;;;5107037;27;20275;-78
2021/10/28 00:23:43;;;;;;;;;;;205.30;2252.80;;;;;;5116129;27;19989;-77
2021/10/28 00:26:10;;;;;;;;;;;205.30;2252.80;;;;;;5115863;27;20002;-77
2021/10/28 00:28:35;;;;;;;;;;;205.20;2252.80;;;;;;5134098;27;20283;-77
2021/10/28 00:31:02;;;;;;;;;;;205.20;2252.80;;;;;;5116067;27;19904;-77
2021/10/28 00:33:29;;;;;;;;;;;205.10;2252.80;;;;;;5134323;27;19963;-77
2021/10/28 00:35:55;;;;;;;;;;;205.00;2252.80;;;;;;5134028;27;19915;-78
2021/10/28 00:38:20;;;;;;;;;;;204.90;2252.80;;;;;;5115825;27;19912;-76
2021/10/28 00:40:46;;;;;;;;;;;204.90;2252.80;;;;;;5115530;27;19903;-76
2021/10/28 00:43:12;;;;;;;;;;;204.90;2252.80;;;;;;5115705;28;20355;-76
2021/10/28 00:45:40;;;;;;;;;;;204.90;2252.80;;;;;;5115741;27;20383;-76
2021/10/28 00:48:06;;;;;;;;;;;204.90;2252.80;;;;;;5113032;27;20432;-76
2021/10/28 00:50:31;;;;;;;;;;;204.80;2252.80;;;;;;5115601;27;19904;-76
2021/10/28 00:52:57;;;;;;;;;;;204.80;2252.80;;;;;;5115782;28;19949;-77
2021/10/28 00:55:23;;;;;;;;;;;204.80;2252.80;;;;;;5133700;27;19910;-75
2021/10/28 00:57:49;;;;;;;;;;;180.10;2252.80;;;;;;5134072;27;20010;-76
2021/10/28 01:00:14;;;;;;;;;;;180.10;2252.80;;;;;;5115451;28;19903;-76
2021/10/28 01:02:40;;;;;;;;;;;180.10;2252.80;;;;;;5115135;28;20030;-76
2021/10/28 01:05:06;;;;;;;;;;;204.80;2252.80;;;;;;5133936;28;20314;-76
2021/10/28 01:07:31;;;;;;;;;;;204.80;2252.80;;;;;;5133186;28;20017;-77
2021/10/28 01:09:57;;;;;;;;;;;204.80;2252.80;;;;;;5115564;28;19903;-76
2021/10/28 01:12:23;;;;;;;;;;;180.10;2252.80;;;;;;5121784;27;19969;-76
2021/10/28 01:14:48;;;;;;;;;;;180.10;2252.80;;;;;;5116336;28;19908;-76
2021/10/28 01:17:14;;;;;;;;;;;180.00;2252.80;;;;;;5099285;28;20006;-77
2021/10/28 01:19:40;;;;;;;;;;;179.90;2252.80;;;;;;5099380;28;20352;-76
2021/10/28 01:22:05;;;;;;;;;;;179.80;2252.80;;;;;;5099069;28;19904;-76
2021/10/28 01:24:31;;;;;;;;;;;179.70;2252.80;;;;;;5117486;28;19957;-76
2021/10/28 01:27:08;;;;;;;;;;;180.10;2252.80;;;;;;5099103;28;20330;-78
2021/10/28 01:29:34;;;;;;;;;;;179.50;2252.80;;;;;;5097296;28;20361;-77
2021/10/28 01:31:59;;;;;;;;;;;179.50;2252.80;;;;;;5098910;28;20024;-76
2021/10/28 01:34:25;;;;;;;;;;;179.50;2252.80;;;;;;5098885;28;19947;-76
2021/10/28 01:36:51;;;;;;;;;;;179.50;2252.80;;;;;;5098896;28;19914;-76
2021/10/28 01:39:19;;;;;;;;;;;179.40;2252.80;;;;;;5098906;28;19908;-76
2021/10/28 01:41:44;;;;;;;;;;;179.40;2252.80;;;;;;5098695;28;19915;-78
2021/10/28 01:44:10;;;;;;;;;;;179.40;2252.80;;;;;;5098755;28;19912;-76
2021/10/28 01:46:35;;;;;;;;;;;179.40;2252.80;;;;;;5098725;28;19916;-76
2021/10/28 01:49:01;;;;;;;;;;;179.20;2252.80;;;;;;5098720;28;20312;-77
2021/10/28 01:51:27;;;;;;;;;;;154.50;2252.80;;;;;;5116664;28;19907;-76
2021/10/28 01:53:52;;;;;;;;;;;154.50;2252.80;;;;;;5098647;28;19927;-76
2021/10/28 01:56:18;;;;;;;;;;;179.20;2252.80;;;;;;5098573;28;20407;-78
2021/10/28 01:58:44;;;;;;;;;;;154.50;2252.80;;;;;;5116608;28;20506;-75
2021/10/28 02:01:10;;;;;;;;;;;154.50;2252.80;;;;;;5098209;28;19903;-76
2021/10/28 02:03:35;;;;;;;;;;;154.50;2252.80;;;;;;5098370;28;19903;-77
2021/10/28 02:06:01;;;;;;;;;;;154.40;2252.80;;;;;;5098221;28;19908;-76
2021/10/28 02:08:27;;;;;;;;;;;154.40;2252.80;;;;;;5098338;28;19958;-77
2021/10/28 02:10:53;;;;;;;;;;;154.00;2252.80;;;;;;5098088;28;19935;-76
2021/10/28 02:13:19;;;;;;;;;;;153.90;2252.80;;;;;;5116256;28;20368;-78
2021/10/28 02:15:45;;;;;;;;;;;153.90;2252.80;;;;;;5116177;28;19935;-76
2021/10/28 02:18:12;;;;;;;;;;;153.80;2252.80;;;;;;5116171;28;19908;-76
2021/10/28 02:20:41;;;;;;;;;;;153.70;2252.80;;;;;;5098088;28;19927;-76
2021/10/28 02:23:07;;;;;;;;;;;128.90;2252.80;;;;;;5098044;28;19908;-76
2021/10/28 02:25:33;;;;;;;;;;;128.90;2252.80;;;;;;5097416;28;19911;-75
2021/10/28 02:27:59;;;;;;;;;;;128.60;2252.80;;;;;;5097824;28;19911;-76
2021/10/28 02:30:25;;;;;;;;;;;128.70;2252.80;;;;;;5115894;28;19911;-76
2021/10/28 02:32:52;;;;;;;;;;;128.70;2252.80;;;;;;5116088;28;19907;-76
2021/10/28 02:35:18;;;;;;;;;;;128.70;2252.80;;;;;;5097705;28;20280;-76
2021/10/28 02:37:44;;;;;;;;;;;128.60;2252.80;;;;;;5115612;28;19904;-75
2021/10/28 02:40:10;;;;;;;;;;;128.50;2252.80;;;;;;5112716;28;19910;-76
2021/10/28 02:42:36;;;;;;;;;;;128.30;2252.80;;;;;;5097711;28;19907;-76
2021/10/28 02:45:02;;;;;;;;;;;128.10;2252.80;;;;;;5097677;28;19957;-76
2021/10/28 02:47:28;;;;;;;;;;;128.00;2252.80;;;;;;5097441;28;19916;-76
2021/10/28 02:49:53;;;;;;;;;;;128.00;2252.80;;;;;;5097620;28;19904;-76
2021/10/28 02:52:19;;;;;;;;;;;103.30;2227.20;;;;;;5115610;28;19904;-76
2021/10/28 02:54:45;;;;;;;;;;;128.00;2252.80;;;;;;5115614;28;19931;-76
2021/10/28 02:57:10;;;;;;;;;;;103.30;2227.20;;;;;;5097430;28;19962;-76
2021/10/28 02:59:36;;;;;;;;;;;103.30;2227.20;;;;;;5115489;28;19957;-76
2021/10/28 03:02:02;;;;;;;;;;;103.20;2227.20;;;;;;5087585;28;19915;-76
2021/10/28 03:04:28;;;;;;;;;;;103.10;2227.20;;;;;;5115364;28;19957;-75
2021/10/28 03:06:54;;;;;;;;;;;103.00;2227.20;;;;;;5097236;28;19915;-76
2021/10/28 03:09:20;;;;;;;;;;;103.10;2227.20;;;;;;5115315;28;19911;-76
2021/10/28 03:11:48;;;;;;;;;;;103.00;2227.20;;;;;;5102822;27;19946;-75
2021/10/28 03:14:17;;;;;;;;;;;102.90;2227.20;;;;;;5108833;27;19911;-76
2021/10/28 03:27:22;;;;;;;;;;;102.80;2227.20;;;;;;5132399;27;19980;-75
2021/10/28 03:29:47;;;;;;;;;;;102.80;2227.20;;;;;;5135505;27;20703;-75
2021/10/28 03:32:13;;;;;;;;;;;103.00;2227.20;;;;;;5116618;27;19910;-75
2021/10/28 03:34:39;;;;;;;;;;;102.90;2227.20;;;;;;5117070;27;19907;-75
2021/10/28 03:40:28;;;;;;;;;;;102.80;2227.20;;;;;;5133302;27;20319;-75
2021/10/28 03:48:30;;;;;;;;;;;102.40;2227.20;;;;;;5134400;27;19962;-75
2021/10/28 04:19:41;;;;;;;;;;;102.70;2227.20;;;;;;5134684;27;19995;-75
2021/10/28 04:28:53;;;;;;;;;;;102.80;2227.20;;;;;;5115284;27;19904;-75
2021/10/28 04:30:18;;;;;;;;;;;102.60;2227.20;;;;;;5131608;27;19971;-75
2021/10/28 04:32:44;;;;;;;;;;;102.50;2227.20;;;;;;5116001;27;20372;-75
2021/10/28 04:35:09;;;;;;;;;;;102.50;2227.20;;;;;;5134311;27;19903;-74
2021/10/28 04:37:38;;;;;;;;;;;102.40;2227.20;;;;;;5115648;27;19926;-74
2021/10/28 04:40:07;;;;;;;;;;;77.70;2227.20;;;;;;5134061;27;19903;-75
2021/10/28 04:42:33;;;;;;;;;;;77.60;2227.20;;;;;;5134012;27;19918;-74
2021/10/28 04:44:59;;;;;;;;;;;77.50;2227.20;;;;;;5134137;27;19914;-74
2021/10/28 04:47:25;;;;;;;;;;;77.60;2227.20;;;;;;5115447;28;19911;-74
2021/10/28 04:49:51;;;;;;;;;;;77.50;2227.20;;;;;;5115772;27;19918;-76
2021/10/28 04:52:18;;;;;;;;;;;77.60;2227.20;;;;;;5134055;27;19946;-74
2021/10/28 04:54:44;;;;;;;;;;;77.70;2227.20;;;;;;5115426;27;19911;-77
2021/10/28 04:57:09;;;;;;;;;;;102.40;2227.20;;;;;;5133860;27;19907;-75
2021/10/28 04:59:35;;;;;;;;;;;102.50;2227.20;;;;;;5133803;27;19910;-75
2021/10/28 05:02:01;;;;;;;;;;;102.60;2227.20;;;;;;5115093;28;20300;-74
2021/10/28 05:04:26;;;;;;;;;;;102.50;2227.20;;;;;;5133918;28;19903;-74
2021/10/28 05:06:52;;;;;;;;;;;77.70;2227.20;;;;;;5133634;27;20663;-75
2021/10/28 05:09:30;;;;;;;;;;;77.70;2227.20;;;;;;5115387;28;19903;-75
2021/10/28 05:11:56;;;;;;;;;;;77.70;2227.20;;;;;;5112632;28;19994;-74
2021/10/28 05:14:22;;;;;;;;;;;77.60;2227.20;;;;;;5133847;28;19962;-74
2021/10/28 05:16:48;;;;;;;;;;;77.70;2227.20;;;;;;5114979;28;19907;-75
2021/10/28 05:19:14;;;;;;;;;;;77.50;2227.20;;;;;;5115203;28;20265;-74
2021/10/28 05:21:39;;;;;;;;;;;77.40;2227.20;;;;;;5115569;28;19910;-74
2021/10/28 05:24:05;;;;;;;;;;;77.60;2227.20;;;;;;5133559;28;19903;-75
2021/10/28 05:26:30;;;;;;;;;;;77.50;2227.20;;;;;;5115166;28;20295;-74
2021/10/28 05:28:56;;;;;;;;;;;77.40;2227.20;;;;;;5133565;27;19911;-74
2021/10/28 05:31:22;;;;;;;;;;;77.30;2227.20;;;;;;5115133;28;19993;-75
2021/10/28 05:33:48;;;;;;;;;;;77.00;2227.20;;;;;;5115369;28;19907;-74
2021/10/28 05:36:14;;;;;;;;;;;76.80;2227.20;;;;;;5133594;28;19996;-74
2021/10/28 05:38:39;;;;;;;;;;;76.80;2227.20;;;;;;5115158;28;19955;-77
2021/10/28 05:41:05;;;;;;;;;;;52.00;2227.20;;;;;;5133225;28;19911;-74
2021/10/28 05:43:31;;;;;;;;;;;52.10;2227.20;;;;;;5133316;27;19930;-75
2021/10/28 05:45:56;;;;;;;;;;;76.80;2227.20;;;;;;5114652;28;20433;-77
2021/10/28 05:48:22;;;;;;;;;;;77.00;2227.20;;;;;;5133518;28;19907;-74
2021/10/28 05:50:48;;;;;;;;;;;77.10;2227.20;;;;;;5133318;28;19955;-75
2021/10/28 05:53:14;;;;;;;;;;;77.20;2227.20;;;;;;5114933;28;19990;-75
2021/10/28 05:55:39;;;;;;;;;;;77.40;2227.20;;;;;;5127088;28;19904;-75
2021/10/28 05:58:05;;;;;;;;;;;77.40;2227.20;;;;;;5118837;28;19953;-75
2021/10/28 06:00:31;;;;;;;;;;;77.10;2227.20;;;;;;5135560;27;19907;-79
2021/10/28 06:02:56;;;;;;;;;;;76.90;2227.20;;;;;;5117234;27;19907;-74
2021/10/28 06:05:22;;;;;;;;;;;77.00;2227.20;;;;;;5136924;27;19946;-75
2021/10/28 06:07:48;;;;;;;;;;;77.10;2227.20;;;;;;5101388;27;20415;-73
2021/10/28 06:10:16;;;;;;;;;;;77.00;2227.20;;;;;;5131459;27;19929;-74
2021/10/28 06:12:45;;;;;;;;;;;77.20;2227.20;;;;;;5117698;27;19926;-78
2021/10/28 06:15:12;;;;;;;;;;;77.10;2227.20;;;;;;5130296;27;19908;-75
2021/10/28 06:17:46;;;;;;;;;;;77.20;2227.20;;;;;;5112615;27;19914;-79
2021/10/28 06:20:12;;;;;;;;;;;77.40;2227.20;;;;;;5131922;27;20356;-78
2021/10/28 06:22:38;;;;;;;;;;;77.50;2227.20;;;;;;5116624;27;19915;-77
2021/10/28 06:25:04;;;;;;;;;;;77.40;2227.20;;;;;;5114875;27;19914;-76
2021/10/28 06:27:30;;;;;;;;;;;77.60;2227.20;;;;;;5134825;27;19920;-77
2021/10/28 06:29:55;;;;;;;;;;;77.50;2227.20;;;;;;5136060;27;19947;-77
2021/10/28 06:32:21;;;;;;;;;;;77.40;2227.20;;;;;;5136654;27;20314;-77
2021/10/28 06:34:48;;;;;;;;;;;77.70;2227.20;;;;;;5117475;27;19917;-76
2021/10/28 06:37:14;;;;;;;;;;;102.40;2227.20;;;;;;5115338;27;19904;-76
2021/10/28 06:39:41;;;;;;;;;;;77.70;2227.20;;;;;;5114956;27;19914;-75
2021/10/28 06:42:11;;;;;;;;;;;77.30;2227.20;;;;;;5116152;27;19912;-77
2021/10/28 06:44:36;;;;;;;;;;;77.20;2227.20;;;;;;5111958;27;19952;-75
2021/10/28 06:47:02;;;;;;;;;;;77.00;2227.20;;;;;;5136401;27;19923;-77
2021/10/28 06:49:30;;;;;;;;;;;76.90;2227.20;;;;;;5133042;27;19968;-75
2021/10/28 06:51:56;;;;;;;;;;;76.90;2227.20;;;;;;5129574;27;19954;-76
2021/10/28 06:54:26;;;;;;;;;;;76.80;2227.20;;;;;;5136116;27;20295;-77
2021/10/28 07:04:39;;;;;;;;;;;77.00;2227.20;;;;;;5125290;27;19961;-79
2021/10/28 07:07:05;;;;;;;;;;;77.00;2227.20;;;;;;5134008;27;19919;-76
2021/10/28 07:09:36;;;;;;;;;;;77.10;2227.20;;;;;;5117517;27;20271;-81
2021/10/28 07:14:27;;;;;;;;;;;77.20;2227.20;;;;;;5135809;27;20367;-76
2021/10/28 07:17:08;;;;;;;;;;;77.10;2227.20;;;;;;5136173;27;19904;-77
2021/10/28 07:19:49;;;;;;;;;;;77.40;2227.20;;;;;;5117827;27;19903;-75
2021/10/28 08:04:49;;;;;;;;;;;102.90;2227.20;;;;;;5124902;27;19904;-77
2021/10/28 08:19:00;;;;;;;;;;;128.20;2252.80;;;;;;5122813;27;19925;-77
2021/10/28 08:29:21;;;;;;;;;;;128.90;2252.80;;;;;;5135312;27;20311;-76
2021/10/28 08:31:51;;;;;;;;;;;153.80;2252.80;;;;;;5116200;27;19903;-76
2021/10/28 08:34:21;;;;;;;;;;;153.80;2252.80;;;;;;5105717;28;19981;-79
2021/10/28 08:36:51;;;;;;;;;;;154.00;2252.80;;;;;;5113417;27;19945;-77
2021/10/28 08:39:17;;;;;;;;;;;154.30;2252.80;;;;;;5134439;27;19903;-77
2021/10/28 08:41:44;;;;;;;;;;;179.20;2252.80;;;;;;5122171;27;19911;-78
2021/10/28 08:44:11;;;;;;;;;;;154.40;2252.80;;;;;;5134728;27;19914;-76
2021/10/28 08:46:41;;;;;;;;;;;179.20;2252.80;;;;;;5133151;27;20434;-78
2021/10/28 08:49:14;;;;;;;;;;;179.30;2252.80;;;;;;5133167;27;19907;-80
2021/10/28 09:24:39;;;;;;;;;;;205.30;2252.80;;;;;;5134714;28;19956;-76
2021/10/28 09:46:12;;;;;;;;;;;256.10;2252.80;;;;;;5138609;27;19910;-78
2021/10/28 09:51:07;;;;;;;;;;;256.10;2252.80;;;;;;5137506;27;19907;-77
2021/10/28 09:59:33;;;;;;;;;;;256.80;2252.80;;;;;;5133091;27;20062;-77
2021/10/28 10:02:10;;;;;;;;;;;256.90;2252.80;;;;;;5118351;27;19909;-74
2021/10/28 10:04:36;;;;;;;;;;;282.00;2278.40;;;;;;5137120;27;20017;-75
2021/10/28 10:07:03;;;;;;;;;;;282.10;2278.40;;;;;;5137501;27;20432;-75
2021/10/28 10:09:29;;;;;;;;;;;282.30;2278.40;;;;;;5118988;27;19903;-78
2021/10/28 10:11:56;;;;;;;;;;;282.30;2278.40;;;;;;5137056;27;19912;-75
2021/10/28 10:14:21;;;;;;;;;;;307.20;2304.00;;;;;;5118902;27;19922;-75
2021/10/28 10:16:48;;;;;;;;;;;282.50;2278.40;;;;;;5137369;27;20257;-78
2021/10/28 10:19:16;;;;;;;;;;;307.50;2304.00;;;;;;5118671;27;19964;-76
2021/10/28 10:21:44;;;;;;;;;;;307.70;2304.00;;;;;;5119046;27;19907;-76
2021/10/28 10:24:23;;;;;;;;;;;307.80;2304.00;;;;;;5118928;27;20401;-76
2021/10/28 11:32:35;;;;;;;;;;;410.20;2252.80;;;;;;5032370;28;19906;-76
2021/10/28 12:24:11;;;;;;;;;;;435.60;2073.60;;;;;;5120258;27;20348;-74
2021/10/28 14:24:24;;;;;;;;;;;409.70;1971.20;;;;;;5137331;27;19910;-77
2021/10/28 15:34:27;;;;;;;;;;;358.90;2201.60;;;;;;5134141;27;19946;-77
2021/10/28 15:38:52;;;;;;;;;;;358.80;2227.20;;;;;;5135339;27;19903;-76
2021/10/28 15:52:59;;;;;;;;;;;333.70;2252.80;;;;;;5134280;27;19912;-76
2021/10/28 16:22:03;;;;;;;;;;;333.00;2329.60;;;;;;5071031;28;19966;-76
2021/10/28 16:24:31;;;;;;;;;;;332.80;2329.60;;;;;;5070113;28;19904;-76
2021/10/28 16:26:57;;;;;;;;;;;308.00;2304.00;;;;;;5068524;28;20320;-76
2021/10/28 16:29:23;;;;;;;;;;;308.10;2304.00;;;;;;5071142;28;19908;-76
2021/10/28 16:31:49;;;;;;;;;;;308.00;2304.00;;;;;;5070716;28;20421;-76
2021/10/28 16:34:15;;;;;;;;;;;307.90;2304.00;;;;;;5070750;28;19905;-78
2021/10/28 16:36:42;;;;;;;;;;;307.70;2304.00;;;;;;5053695;28;20352;-78
2021/10/28 16:39:12;;;;;;;;;;;307.90;2304.00;;;;;;5052750;28;20018;-77
2021/10/28 16:41:39;;;;;;;;;;;307.90;2304.00;;;;;;5069851;28;19908;-76
2021/10/28 16:44:05;;;;;;;;;;;307.80;2304.00;;;;;;5070457;28;19915;-75
2021/10/28 16:46:31;;;;;;;;;;;307.60;2304.00;;;;;;5067763;28;19908;-76
2021/10/28 16:48:58;;;;;;;;;;;307.70;2304.00;;;;;;5081744;27;19907;-73
2021/10/28 16:51:25;;;;;;;;;;;307.70;2304.00;;;;;;5131047;27;19908;-75
2021/10/28 16:53:51;;;;;;;;;;;307.60;2304.00;;;;;;5133501;27;19907;-76
2021/10/28 16:56:16;;;;;;;;;;;307.60;2304.00;;;;;;5130147;27;20450;-77
2021/10/28 16:58:42;;;;;;;;;;;307.50;2304.00;;;;;;5133372;27;20010;-75
2021/10/28 17:01:08;;;;;;;;;;;307.40;2304.00;;;;;;5134072;27;19918;-75
2021/10/28 17:03:34;;;;;;;;;;;307.30;2304.00;;;;;;5133902;27;19910;-74
2021/10/28 17:06:00;;;;;;;;;;;307.40;2304.00;;;;;;5115543;28;19903;-76
2021/10/28 17:08:26;;;;;;;;;;;307.30;2304.00;;;;;;5114260;28;20269;-75
2021/10/28 17:10:51;;;;;;;;;;;307.20;2304.00;;;;;;5110515;28;20283;-75
2021/10/28 17:13:17;;;;;;;;;;;307.20;2304.00;;;;;;5110589;28;19923;-76
2021/10/28 17:15:42;;;;;;;;;;;282.50;2278.40;;;;;;5133716;28;19910;-76
2021/10/28 17:18:08;;;;;;;;;;;282.50;2278.40;;;;;;5115406;28;20310;-76
2021/10/28 17:20:35;;;;;;;;;;;282.40;2278.40;;;;;;5133665;28;20002;-76
2021/10/28 17:23:01;;;;;;;;;;;282.20;2278.40;;;;;;5133736;28;19904;-76
2021/10/28 17:25:28;;;;;;;;;;;282.30;2278.40;;;;;;5133437;28;20004;-76
2021/10/28 17:27:54;;;;;;;;;;;282.10;2278.40;;;;;;5133662;28;19965;-76
2021/10/28 17:30:21;;;;;;;;;;;282.20;2278.40;;;;;;5133253;28;19903;-76
2021/10/28 17:32:47;;;;;;;;;;;282.00;2278.40;;;;;;5133716;28;19903;-75
2021/10/28 17:35:14;;;;;;;;;;;282.00;2278.40;;;;;;5133604;28;20356;-76
2021/10/28 17:37:39;;;;;;;;;;;282.00;2278.40;;;;;;5130866;28;19932;-76
2021/10/28 17:40:05;;;;;;;;;;;282.40;2278.40;;;;;;5133611;28;19904;-76
2021/10/28 17:42:32;;;;;;;;;;;281.90;2278.40;;;;;;5114505;28;20367;-77
2021/10/28 17:44:59;;;;;;;;;;;281.70;2278.40;;;;;;5133383;28;19922;-77
2021/10/28 17:47:24;;;;;;;;;;;281.80;2278.40;;;;;;5115049;28;19919;-76
2021/10/28 17:49:51;;;;;;;;;;;281.80;2278.40;;;;;;5113972;28;20353;-76
2021/10/28 17:52:18;;;;;;;;;;;281.70;2278.40;;;;;;5133453;28;19911;-76
2021/10/28 17:54:44;;;;;;;;;;;281.70;2278.40;;;;;;5133300;27;19903;-77
2021/10/28 17:57:10;;;;;;;;;;;281.70;2278.40;;;;;;5136832;27;19911;-75
2021/10/28 17:59:36;;;;;;;;;;;281.60;2278.40;;;;;;5136918;27;19903;-76
2021/10/28 18:02:02;;;;;;;;;;;281.60;2278.40;;;;;;5136113;27;19914;-77
2021/10/28 18:04:27;;;;;;;;;;;281.70;2278.40;;;;;;5137281;27;19914;-76
2021/10/28 18:06:53;;;;;;;;;;;281.70;2278.40;;;;;;5118653;27;20338;-77
2021/10/28 18:09:22;;;;;;;;;;;256.90;2252.80;;;;;;5137285;27;19948;-77
2021/10/28 18:11:49;;;;;;;;;;;256.70;2252.80;;;;;;5136934;27;19915;-75
2021/10/28 18:14:15;;;;;;;;;;;256.80;2252.80;;;;;;5134180;27;19998;-76
2021/10/28 18:16:41;;;;;;;;;;;256.80;2252.80;;;;;;5120655;27;19951;-75
2021/10/28 18:19:08;;;;;;;;;;;256.80;2252.80;;;;;;5128130;27;20324;-76
2021/10/28 18:21:36;;;;;;;;;;;256.90;2252.80;;;;;;5118616;27;19904;-75
2021/10/28 18:24:02;;;;;;;;;;;281.60;2278.40;;;;;;5131538;27;19948;-77
2021/10/28 18:26:28;;;;;;;;;;;256.90;2252.80;;;;;;5136675;27;19911;-76
2021/10/28 18:28:56;;;;;;;;;;;256.90;2252.80;;;;;;5136582;27;19907;-77
2021/10/28 18:31:21;;;;;;;;;;;256.90;2252.80;;;;;;5133848;27;20048;-74
2021/10/28 18:33:49;;;;;;;;;;;256.80;2252.80;;;;;;5137051;27;20006;-76
2021/10/28 18:36:15;;;;;;;;;;;256.70;2252.80;;;;;;5136643;27;19910;-75
2021/10/28 18:38:50;;;;;;;;;;;256.60;2252.80;;;;;;5110395;28;20280;-76
2021/10/28 18:41:16;;;;;;;;;;;256.50;2252.80;;;;;;5133999;27;19907;-76
2021/10/28 18:43:42;;;;;;;;;;;256.50;2252.80;;;;;;5114915;27;19911;-75
2021/10/28 18:46:08;;;;;;;;;;;256.50;2252.80;;;;;;5136425;27;19903;-74
2021/10/28 18:48:34;;;;;;;;;;;256.50;2252.80;;;;;;5114661;27;19960;-75
2021/10/28 18:51:00;;;;;;;;;;;256.50;2252.80;;;;;;5127777;27;19904;-76
2021/10/28 18:53:26;;;;;;;;;;;256.40;2252.80;;;;;;5136271;27;19956;-75
2021/10/28 18:55:52;;;;;;;;;;;256.30;2252.80;;;;;;5116358;27;19918;-74
2021/10/28 18:58:19;;;;;;;;;;;256.10;2252.80;;;;;;5117052;27;20288;-74
2021/10/28 19:00:45;;;;;;;;;;;231.30;2252.80;;;;;;5136030;27;19949;-76
2021/10/28 19:03:11;;;;;;;;;;;256.00;2252.80;;;;;;5136119;27;20301;-75
2021/10/28 19:05:37;;;;;;;;;;;256.10;2252.80;;;;;;5136090;27;19913;-77
2021/10/28 19:08:02;;;;;;;;;;;256.10;2252.80;;;;;;5132977;27;19922;-77
2021/10/28 19:10:28;;;;;;;;;;;256.20;2252.80;;;;;;5116864;27;19911;-75
2021/10/28 19:12:54;;;;;;;;;;;256.10;2252.80;;;;;;5135891;27;19919;-76
2021/10/28 19:15:19;;;;;;;;;;;256.20;2252.80;;;;;;5136193;27;19911;-76
2021/10/28 19:17:48;;;;;;;;;;;256.10;2252.80;;;;;;5136041;27;19903;-75
2021/10/28 19:20:14;;;;;;;;;;;256.00;2252.80;;;;;;5129028;27;19915;-76
2021/10/28 19:22:40;;;;;;;;;;;256.10;2252.80;;;;;;5128729;27;19904;-76
2021/10/28 19:25:07;;;;;;;;;;;231.30;2252.80;;;;;;5135902;27;19949;-75
2021/10/28 19:27:36;;;;;;;;;;;231.20;2252.80;;;;;;5117522;27;19982;-76
2021/10/28 19:30:12;;;;;;;;;;;231.20;2252.80;;;;;;5135819;27;19903;-78
2021/10/28 19:32:38;;;;;;;;;;;231.20;2252.80;;;;;;5136039;27;20353;-79
2021/10/28 19:35:04;;;;;;;;;;;231.20;2252.80;;;;;;5135864;27;19918;-76
2021/10/28 19:37:42;;;;;;;;;;;231.30;2252.80;;;;;;5117719;27;19903;-79
2021/10/28 19:45:17;;;;;;;;;;;231.00;2252.80;;;;;;5133952;27;20324;-76
2021/10/28 19:47:43;;;;;;;;;;;231.00;2252.80;;;;;;5133278;27;19915;-75
2021/10/28 19:50:12;;;;;;;;;;;230.90;2252.80;;;;;;5134587;27;20387;-80
2021/10/28 19:52:41;;;;;;;;;;;230.90;2252.80;;;;;;5134491;27;19908;-74
2021/10/28 19:55:07;;;;;;;;;;;230.90;2252.80;;;;;;5134441;27;19911;-73
2021/10/28 19:57:36;;;;;;;;;;;230.90;2252.80;;;;;;5116731;27;19904;-77
2021/10/28 20:00:15;;;;;;;;;;;230.80;2252.80;;;;;;5134876;27;19914;-75
2021/10/28 20:21:00;;;;;;;;;;;230.50;2252.80;;;;;;5134897;27;19917;-75
2021/10/28 20:23:27;;;;;;;;;;;230.50;2252.80;;;;;;5135176;27;19908;-75
2021/10/28 20:25:53;;;;;;;;;;;230.90;2252.80;;;;;;5134977;27;20061;-75
2021/10/28 20:28:20;;;;;;;;;;;230.60;2252.80;;;;;;5134462;27;19912;-76
2021/10/28 20:30:54;;;;;;;;;;;230.70;2252.80;;;;;;5134767;27;20391;-76
2021/10/28 20:33:21;;;;;;;;;;;230.50;2252.80;;;;;;5134561;27;19903;-79
2021/10/28 20:38:30;;;;;;;;;;;230.50;2252.80;;;;;;5134699;27;19909;-78
2021/10/28 20:40:56;;;;;;;;;;;230.40;2252.80;;;;;;5134316;27;19998;-74
2021/10/28 20:43:22;;;;;;;;;;;205.70;2252.80;;;;;;5134400;27;20369;-81
2021/10/28 20:45:47;;;;;;;;;;;230.40;2252.80;;;;;;5133220;27;20260;-77
2021/10/28 20:48:13;;;;;;;;;;;230.40;2252.80;;;;;;5134621;27;20279;-75
2021/10/28 20:50:38;;;;;;;;;;;230.40;2252.80;;;;;;5134693;27;19949;-77
2021/10/28 20:53:05;;;;;;;;;;;230.40;2252.80;;;;;;5134889;27;19904;-76
2021/10/28 20:55:31;;;;;;;;;;;205.70;2252.80;;;;;;5134972;27;19947;-76
2021/10/28 20:57:57;;;;;;;;;;;205.70;2252.80;;;;;;5134900;27;19903;-79
2021/10/28 21:00:23;;;;;;;;;;;230.40;2252.80;;;;;;5138967;27;19910;-77
2021/10/28 21:02:49;;;;;;;;;;;205.70;2252.80;;;;;;5135547;27;19903;-80
2021/10/28 21:05:19;;;;;;;;;;;205.60;2252.80;;;;;;5132650;27;19912;-77
2021/10/28 21:07:45;;;;;;;;;;;205.60;2252.80;;;;;;5121406;28;19950;-74
2021/10/28 21:10:12;;;;;;;;;;;205.50;2252.80;;;;;;5134327;28;19903;-78
2021/10/28 21:12:37;;;;;;;;;;;205.40;2252.80;;;;;;5134178;28;19937;-80
2021/10/28 21:15:04;;;;;;;;;;;205.40;2252.80;;;;;;5113578;28;20365;-75
2021/10/28 21:17:29;;;;;;;;;;;205.30;2252.80;;;;;;5120194;28;19911;-75
2021/10/28 21:19:55;;;;;;;;;;;205.40;2252.80;;;;;;5134448;28;20330;-76
2021/10/28 21:22:20;;;;;;;;;;;205.40;2252.80;;;;;;5113835;28;19910;-77
2021/10/28 21:24:49;;;;;;;;;;;205.40;2252.80;;;;;;5134170;28;19903;-75
2021/10/28 21:27:16;;;;;;;;;;;205.30;2252.80;;;;;;5115187;28;19908;-76
2021/10/28 21:29:41;;;;;;;;;;;205.20;2252.80;;;;;;5134628;27;19986;-79
2021/10/28 21:32:10;;;;;;;;;;;205.20;2252.80;;;;;;5138090;27;19999;-76
2021/10/28 21:34:37;;;;;;;;;;;205.10;2252.80;;;;;;5138005;27;19903;-76
2021/10/28 21:37:04;;;;;;;;;;;204.90;2252.80;;;;;;5137683;27;19960;-75
2021/10/28 21:39:29;;;;;;;;;;;205.10;2252.80;;;;;;5119136;27;19943;-77
2021/10/28 21:41:55;;;;;;;;;;;205.10;2252.80;;;;;;5131960;27;19999;-78
2021/10/28 21:44:21;;;;;;;;;;;205.10;2252.80;;;;;;5137957;27;20398;-75
2021/10/28 21:46:48;;;;;;;;;;;205.20;2252.80;;;;;;5118283;27;19911;-75
2021/10/28 21:49:15;;;;;;;;;;;205.30;2252.80;;;;;;5119447;27;20321;-76
2021/10/28 21:51:41;;;;;;;;;;;205.30;2252.80;;;;;;5137699;27;19914;-75
2021/10/28 21:54:16;;;;;;;;;;;205.30;2252.80;;;;;;5137632;27;19903;-77
2021/10/28 21:56:45;;;;;;;;;;;205.20;2252.80;;;;;;5137603;27;19903;-75
2021/10/28 22:26:17;;;;;;;;;;;205.10;2252.80;;;;;;5093981;28;19933;-77
2021/10/28 22:28:43;;;;;;;;;;;205.00;2252.80;;;;;;5093839;28;19915;-76
2021/10/28 22:31:09;;;;;;;;;;;204.80;2252.80;;;;;;5094042;28;19951;-77
2021/10/28 22:33:34;;;;;;;;;;;204.90;2252.80;;;;;;5093577;28;20010;-77
2021/10/28 22:36:11;;;;;;;;;;;204.80;2252.80;;;;;;5093960;28;19911;-76
2021/10/28 22:38:45;;;;;;;;;;;204.80;2252.80;;;;;;5130837;27;20394;-78
2021/10/28 22:41:11;;;;;;;;;;;204.90;2252.80;;;;;;5136152;27;19907;-78
2021/10/28 22:43:36;;;;;;;;;;;204.90;2252.80;;;;;;5136775;27;19907;-78
2021/10/28 22:46:02;;;;;;;;;;;204.80;2252.80;;;;;;5136756;27;19918;-78
2021/10/28 22:48:28;;;;;;;;;;;204.90;2252.80;;;;;;5137017;27;20360;-75
2021/10/28 22:50:53;;;;;;;;;;;180.10;2252.80;;;;;;5137043;27;20249;-75
2021/10/28 22:53:20;;;;;;;;;;;180.10;2252.80;;;;;;5136424;27;20378;-77
2021/10/28 22:55:47;;;;;;;;;;;180.10;2252.80;;;;;;5118090;27;19969;-75
2021/10/28 22:58:19;;;;;;;;;;;180.10;2252.80;;;;;;5124422;27;19908;-75
2021/10/28 23:16:42;;;;;;;;;;;180.00;2252.80;;;;;;5129981;27;20005;-74
2021/10/28 23:22:03;;;;;;;;;;;180.10;2252.80;;;;;;5052869;28;19908;-74
2021/10/28 23:24:29;;;;;;;;;;;180.10;2252.80;;;;;;5052692;28;19927;-75
2021/10/28 23:26:55;;;;;;;;;;;180.10;2252.80;;;;;;5052480;28;19982;-77
2021/10/28 23:29:21;;;;;;;;;;;180.00;2252.80;;;;;;5052493;28;20351;-75
2021/10/28 23:31:46;;;;;;;;;;;179.90;2252.80;;;;;;5052561;28;20038;-75
2021/10/28 23:34:12;;;;;;;;;;;180.00;2252.80;;;;;;5052268;28;19912;-74
2021/10/28 23:36:38;;;;;;;;;;;180.00;2252.80;;;;;;5052249;28;20378;-77
2021/10/28 23:39:04;;;;;;;;;;;180.00;2252.80;;;;;;5046767;28;20040;-75
2021/10/28 23:41:30;;;;;;;;;;;179.80;2252.80;;;;;;5044514;28;19912;-76
2021/10/28 23:43:56;;;;;;;;;;;179.70;2252.80;;;;;;5048266;28;19913;-74
2021/10/28 23:46:22;;;;;;;;;;;179.60;2252.80;;;;;;5052391;28;19986;-78
2021/10/28 23:48:47;;;;;;;;;;;179.50;2252.80;;;;;;5052182;28;19920;-75
2021/10/28 23:51:13;;;;;;;;;;;179.60;2252.80;;;;;;5052162;28;19905;-75